createdAt,value
2022-09-03T00:00:28.255Z,98895.00
2022-09-03T00:03:12.103Z,98909.00
2022-09-03T00:05:52.250Z,98909.00
2022-09-03T00:08:28.075Z,98909.00
2022-09-03T00:11:14.218Z,98911.00
2022-09-03T00:14:12.290Z,98910.00
2022-09-03T00:16:59.332Z,98902.00
2022-09-03T00:19:38.234Z,98905.00
2022-09-03T00:22:34.952Z,98912.00
2022-09-03T00:25:11.259Z,98913.00
2022-09-03T00:27:39.305Z,98916.00
2022-09-03T00:30:21.228Z,98913.00
2022-09-03T00:33:01.732Z,98916.00
2022-09-03T00:36:08.233Z,98916.00
2022-09-03T00:38:35.105Z,98915.00
2022-09-03T00:41:52.257Z,98919.00
2022-09-03T00:44:25.316Z,98927.00
2022-09-03T00:47:23.331Z,98930.00
2022-09-03T00:50:47.247Z,98933.00
2022-09-03T00:53:32.770Z,98935.00
2022-09-03T00:56:27.247Z,98949.00
2022-09-03T00:59:09.011Z,98947.00
2022-09-03T01:02:30.314Z,98953.00
2022-09-03T01:05:28.275Z,98956.00
2022-09-03T01:08:20.275Z,98951.00
2022-09-03T01:11:35.286Z,98955.00
2022-09-03T01:14:39.290Z,98951.00
2022-09-03T01:17:38.460Z,98948.00
2022-09-03T01:20:15.285Z,98946.00
2022-09-03T01:22:54.127Z,98955.00
2022-09-03T01:25:59.299Z,98952.00
2022-09-03T01:29:07.292Z,98958.00
2022-09-03T01:32:08.302Z,98968.00
2022-09-03T01:35:13.093Z,98963.00
2022-09-03T01:38:07.308Z,98945.00
2022-09-03T01:41:22.182Z,98945.00
2022-09-03T01:44:22.325Z,98948.00
2022-09-03T01:46:57.273Z,98956.00
2022-09-03T01:50:29.315Z,98952.00
2022-09-03T01:53:25.353Z,98944.00
2022-09-03T01:56:19.692Z,98959.00
2022-09-03T01:59:24.308Z,98963.00
2022-09-03T02:01:56.112Z,98961.00
2022-09-03T02:04:32.322Z,98966.00
2022-09-03T02:07:00.735Z,98966.00
2022-09-03T02:09:34.307Z,98976.00
2022-09-03T02:12:09.045Z,98961.00
2022-09-03T02:14:42.298Z,98953.00
2022-09-03T02:17:15.327Z,98965.00
2022-09-03T02:19:48.307Z,98952.00
2022-09-03T02:22:15.225Z,98953.00
2022-09-03T02:24:48.329Z,98948.00
2022-09-03T02:27:21.308Z,98951.00
2022-09-03T02:29:55.011Z,98949.00
2022-09-03T02:32:28.328Z,98944.00
2022-09-03T02:34:55.193Z,98952.00
2022-09-03T02:37:29.354Z,98940.00
2022-09-03T02:39:56.285Z,98937.00
2022-09-03T02:42:23.202Z,98933.00
2022-09-03T02:45:10.342Z,98943.00
2022-09-03T02:47:37.247Z,98939.00
2022-09-03T02:50:11.342Z,98928.00
2022-09-03T02:52:38.255Z,98931.00
2022-09-03T02:55:12.352Z,98926.00
2022-09-03T02:57:39.257Z,98930.00
2022-09-03T03:00:13.362Z,98923.00
2022-09-03T03:02:40.332Z,98914.00
2022-09-03T03:05:14.373Z,98918.00
2022-09-03T03:07:41.366Z,98914.00
2022-09-03T03:10:09.129Z,98921.00
2022-09-03T03:12:42.370Z,98928.00
2022-09-03T03:15:09.692Z,98929.00
2022-09-03T03:17:43.357Z,98927.00
2022-09-03T03:20:10.802Z,98914.00
2022-09-03T03:22:37.722Z,98912.00
2022-09-03T03:25:11.357Z,98910.00
2022-09-03T03:27:44.372Z,98921.00
2022-09-03T03:30:12.244Z,98912.00
2022-09-03T03:32:46.369Z,98913.00
2022-09-03T03:35:13.269Z,98918.00
2022-09-03T03:37:40.242Z,98908.00
2022-09-03T03:40:14.356Z,98913.00
2022-09-03T03:42:41.944Z,98918.00
2022-09-03T03:45:16.397Z,98920.00
2022-09-03T03:47:43.339Z,98909.00
2022-09-03T03:50:10.451Z,98885.00
2022-09-03T03:52:43.392Z,98906.00
2022-09-03T03:55:10.311Z,98910.00
2022-09-03T03:57:43.414Z,98907.00
2022-09-03T04:00:10.897Z,98897.00
2022-09-03T04:02:44.445Z,98898.00
2022-09-03T04:05:11.472Z,98907.00
2022-09-03T04:07:38.500Z,98903.00
2022-09-03T04:10:12.402Z,98904.00
2022-09-03T04:12:39.299Z,98902.00
2022-09-03T04:15:06.665Z,98902.00
2022-09-03T04:17:40.396Z,98909.00
2022-09-03T04:20:07.611Z,98902.00
2022-09-03T04:22:34.518Z,98903.00
2022-09-03T04:25:08.392Z,98908.00
2022-09-03T04:27:35.292Z,98898.00
2022-09-03T04:30:08.419Z,98907.00
2022-09-03T04:32:42.444Z,98907.00
2022-09-03T04:35:16.429Z,98911.00
2022-09-03T04:37:43.337Z,98912.00
2022-09-03T04:40:10.692Z,98906.00
2022-09-03T04:42:44.444Z,98920.00
2022-09-03T04:45:11.421Z,98919.00
2022-09-03T04:47:44.443Z,98917.00
2022-09-03T04:50:11.351Z,98910.00
2022-09-03T04:52:44.469Z,98918.00
2022-09-03T04:55:11.383Z,98916.00
2022-09-03T04:57:44.449Z,98910.00
2022-09-03T05:00:18.459Z,98916.00
2022-09-03T05:02:46.302Z,98917.00
2022-09-03T05:05:20.459Z,98908.00
2022-09-03T05:07:47.332Z,98901.00
2022-09-03T05:10:14.403Z,98910.00
2022-09-03T05:12:47.482Z,98912.00
2022-09-03T05:15:21.444Z,98914.00
2022-09-03T05:17:48.361Z,98906.00
2022-09-03T05:20:21.450Z,98906.00
2022-09-03T05:22:49.222Z,98908.00
2022-09-03T05:25:22.466Z,98914.00
2022-09-03T05:27:55.465Z,98924.00
2022-09-03T05:30:22.406Z,98931.00
2022-09-03T05:32:49.575Z,98936.00
2022-09-03T05:35:26.080Z,98937.00
2022-09-03T05:38:03.459Z,98941.00
2022-09-03T05:40:30.374Z,98942.00
2022-09-03T05:43:08.417Z,98961.00
2022-09-03T05:45:42.501Z,98945.00
2022-09-03T05:48:09.389Z,98954.00
2022-09-03T05:50:42.462Z,98940.00
2022-09-03T05:53:09.344Z,98949.00
2022-09-03T05:55:42.439Z,98949.00
2022-09-03T05:58:09.310Z,98950.00
2022-09-03T06:00:42.470Z,98952.00
2022-09-03T06:03:09.496Z,98942.00
2022-09-03T06:05:43.503Z,98949.00
2022-09-03T06:08:19.489Z,98958.00
2022-09-03T06:10:46.457Z,98948.00
2022-09-03T06:13:13.395Z,98944.00
2022-09-03T06:15:46.442Z,98950.00
2022-09-03T06:18:13.394Z,98968.00
2022-09-03T06:20:46.526Z,98969.00
2022-09-03T06:23:19.499Z,98960.00
2022-09-03T06:25:52.496Z,98959.00
2022-09-03T06:28:20.276Z,98956.00
2022-09-03T06:30:56.495Z,98952.00
2022-09-03T06:33:23.498Z,98960.00
2022-09-03T06:35:54.797Z,98948.00
2022-09-03T06:38:28.504Z,98951.00
2022-09-03T06:41:00.037Z,98965.00
2022-09-03T06:43:26.937Z,98961.00
2022-09-03T06:46:12.545Z,98959.00
2022-09-03T06:48:39.900Z,98962.00
2022-09-03T06:51:35.580Z,98962.00
2022-09-03T06:54:14.494Z,98959.00
2022-09-03T06:56:41.731Z,98951.00
2022-09-03T06:59:20.529Z,98956.00
2022-09-03T07:01:53.583Z,98951.00
2022-09-03T07:04:27.561Z,98957.00
2022-09-03T07:07:02.554Z,98952.00
2022-09-03T07:09:29.462Z,98950.00
2022-09-03T07:12:02.515Z,98957.00
2022-09-03T07:14:29.770Z,98968.00
2022-09-03T07:16:56.736Z,98972.00
2022-09-03T07:19:30.532Z,98983.00
2022-09-03T07:21:57.394Z,98985.00
2022-09-03T07:24:30.551Z,98978.00
2022-09-03T07:26:57.505Z,98980.00
2022-09-03T07:29:30.526Z,98974.00
2022-09-03T07:31:57.502Z,98982.00
2022-09-03T07:34:25.545Z,98978.00
2022-09-03T07:36:59.546Z,98975.00
2022-09-03T07:39:33.591Z,98981.00
2022-09-03T07:42:06.602Z,98985.00
2022-09-03T07:44:33.459Z,98972.00
2022-09-03T07:47:06.544Z,98965.00
2022-09-03T07:49:33.485Z,98952.00
2022-09-03T07:52:06.529Z,98956.00
2022-09-03T07:54:38.927Z,98966.00
2022-09-03T07:57:12.572Z,98971.00
2022-09-03T07:59:39.486Z,98976.00
2022-09-03T08:02:19.559Z,98991.00
2022-09-03T08:04:52.547Z,98993.00
2022-09-03T08:07:19.456Z,98989.00
2022-09-03T08:09:46.349Z,98986.00
2022-09-03T08:12:19.549Z,98993.00
2022-09-03T08:14:52.581Z,99006.00
2022-09-03T08:17:19.464Z,99005.00
2022-09-03T08:19:52.553Z,98984.00
2022-09-03T08:22:19.444Z,98991.00
2022-09-03T08:24:52.571Z,98987.00
2022-09-03T08:27:25.591Z,98998.00
2022-09-03T08:29:52.461Z,98986.00
2022-09-03T08:32:27.610Z,99005.00
2022-09-03T08:34:54.504Z,99004.00
2022-09-03T08:37:27.606Z,98985.00
2022-09-03T08:39:54.837Z,98972.00
2022-09-03T08:43:06.680Z,98992.00
2022-09-03T08:45:36.594Z,99010.00
2022-09-03T08:48:16.589Z,99027.00
2022-09-03T08:50:45.830Z,99028.00
2022-09-03T08:53:36.607Z,99029.00
2022-09-03T08:56:08.213Z,99042.00
2022-09-03T08:58:42.567Z,99036.00
2022-09-03T09:01:43.569Z,99047.00
2022-09-03T09:05:16.615Z,99044.00
2022-09-03T09:07:51.458Z,99014.00
2022-09-03T09:10:44.606Z,99035.00
2022-09-03T09:13:50.642Z,99041.00
2022-09-03T09:17:16.382Z,99050.00
2022-09-03T09:20:03.648Z,99061.00
2022-09-03T09:22:39.147Z,99063.00
2022-09-03T09:25:24.660Z,99066.00
2022-09-03T09:28:03.162Z,99076.00
2022-09-03T09:30:37.630Z,99075.00
2022-09-03T09:33:04.519Z,99074.00
2022-09-03T09:35:31.422Z,99084.00
2022-09-03T09:38:05.831Z,99068.00
2022-09-03T09:40:39.537Z,99067.00
2022-09-03T09:43:20.623Z,99088.00
2022-09-03T09:45:49.779Z,99077.00
2022-09-03T09:48:34.627Z,99079.00
2022-09-03T09:51:12.962Z,99076.00
2022-09-03T09:53:47.655Z,99071.00
2022-09-03T09:56:25.297Z,99071.00
2022-09-03T09:59:16.649Z,99067.00
2022-09-03T10:01:44.954Z,99080.00
2022-09-03T10:04:13.529Z,99073.00
2022-09-03T10:06:46.677Z,99076.00
2022-09-03T10:09:19.507Z,99072.00
2022-09-03T10:11:55.680Z,99071.00
2022-09-03T10:14:29.200Z,99064.00
2022-09-03T10:17:10.629Z,99066.00
2022-09-03T10:20:24.666Z,99068.00
2022-09-03T10:22:57.618Z,99057.00
2022-09-03T10:25:35.697Z,99062.00
2022-09-03T10:28:02.638Z,99060.00
2022-09-03T10:30:30.162Z,99062.00
2022-09-03T10:33:18.659Z,99066.00
2022-09-03T10:36:05.355Z,99055.00
2022-09-03T10:38:41.654Z,99058.00
2022-09-03T10:41:48.700Z,99056.00
2022-09-03T10:45:08.681Z,99061.00
2022-09-03T10:48:34.671Z,99065.00
2022-09-03T10:51:13.638Z,99067.00
2022-09-03T10:54:20.669Z,99054.00
2022-09-03T10:57:09.379Z,99061.00
2022-09-03T11:00:01.672Z,99037.00
2022-09-03T11:02:56.763Z,99039.00
2022-09-03T11:05:31.153Z,99028.00
2022-09-03T11:08:31.680Z,99041.00
2022-09-03T11:11:40.794Z,99039.00
2022-09-03T11:14:16.714Z,99037.00
2022-09-03T11:16:55.850Z,99044.00
2022-09-03T11:19:50.724Z,99036.00
2022-09-03T11:22:17.599Z,99039.00
2022-09-03T11:25:01.735Z,99041.00
2022-09-03T11:28:00.785Z,99041.00
2022-09-03T11:30:58.874Z,99037.00
2022-09-03T11:33:32.711Z,99037.00
2022-09-03T11:36:00.947Z,99029.00
2022-09-03T11:38:37.784Z,99039.00
2022-09-03T11:41:30.730Z,99043.00
2022-09-03T11:44:04.678Z,99027.00
2022-09-03T11:46:31.748Z,99025.00
2022-09-03T11:49:18.734Z,99019.00
2022-09-03T11:52:05.762Z,99021.00
2022-09-03T11:54:39.732Z,99014.00
2022-09-03T11:57:22.747Z,99005.00
2022-09-03T11:59:49.634Z,99014.00
2022-09-03T12:02:38.828Z,99017.00
2022-09-03T12:05:28.379Z,99013.00
2022-09-03T12:08:45.770Z,99009.00
2022-09-03T12:11:34.407Z,99001.00
2022-09-03T12:14:42.772Z,99001.00
2022-09-03T12:17:26.737Z,99001.00
2022-09-03T12:19:58.207Z,98983.00
2022-09-03T12:22:34.760Z,98997.00
2022-09-03T12:25:29.007Z,98989.00
2022-09-03T12:28:02.759Z,98994.00
2022-09-03T12:30:29.806Z,99002.00
2022-09-03T12:33:15.839Z,98987.00
2022-09-03T12:35:58.922Z,98986.00
2022-09-03T12:38:54.736Z,98980.00
2022-09-03T12:41:30.114Z,98975.00
2022-09-03T12:44:06.791Z,98968.00
2022-09-03T12:46:34.570Z,98985.00
2022-09-03T12:49:30.210Z,98976.00
2022-09-03T12:52:06.375Z,98985.00
2022-09-03T12:54:50.349Z,98995.00
2022-09-03T12:57:28.775Z,98989.00
2022-09-03T12:59:58.811Z,98978.00
2022-09-03T13:02:43.772Z,98985.00
2022-09-03T13:05:18.342Z,98984.00
2022-09-03T13:08:02.838Z,98975.00
2022-09-03T13:10:38.775Z,98978.00
2022-09-03T13:13:26.005Z,98978.00
2022-09-03T13:16:43.851Z,98978.00
2022-09-03T13:19:39.331Z,98977.00
2022-09-03T13:22:31.814Z,98965.00
2022-09-03T13:25:15.906Z,98961.00
2022-09-03T13:28:17.806Z,98953.00
2022-09-03T13:31:27.803Z,98961.00
2022-09-03T13:34:17.954Z,98968.00
2022-09-03T13:37:05.800Z,98953.00
2022-09-03T13:39:41.296Z,98949.00
2022-09-03T13:42:26.812Z,98971.00
2022-09-03T13:45:46.869Z,98953.00
2022-09-03T13:48:47.821Z,98954.00
2022-09-03T13:51:44.820Z,98948.00
2022-09-03T13:58:00.995Z,98941.00
2022-09-03T14:01:00.856Z,98942.00
2022-09-03T14:03:48.735Z,98942.00
2022-09-03T14:06:40.177Z,98945.00
2022-09-03T14:09:35.856Z,98940.00
2022-09-03T14:12:29.077Z,98933.00
2022-09-03T14:15:08.834Z,98937.00
2022-09-03T14:18:13.920Z,98931.00
2022-09-03T14:21:11.852Z,98930.00
2022-09-03T14:23:50.700Z,98941.00
2022-09-03T14:26:42.847Z,98927.00
2022-09-03T14:29:12.705Z,98933.00
2022-09-03T14:32:29.863Z,98937.00
2022-09-03T14:35:21.845Z,98926.00
2022-09-03T14:38:28.850Z,98931.00
2022-09-03T14:42:01.942Z,98931.00
2022-09-03T14:44:39.839Z,98930.00
2022-09-03T14:48:02.852Z,98922.00
2022-09-03T14:50:41.854Z,98921.00
2022-09-03T14:53:36.873Z,98939.00
2022-09-03T14:56:55.892Z,98935.00
2022-09-03T14:59:50.060Z,98926.00
2022-09-03T15:03:24.902Z,98926.00
2022-09-03T15:06:15.011Z,98928.00
2022-09-03T15:09:01.885Z,98923.00
2022-09-03T15:11:34.335Z,98928.00
2022-09-03T15:14:21.880Z,98925.00
2022-09-03T15:17:26.868Z,98931.00
2022-09-03T15:20:24.920Z,98929.00
2022-09-03T15:23:12.880Z,98931.00
2022-09-03T15:26:20.904Z,98929.00
2022-09-03T15:29:29.923Z,98932.00
2022-09-03T15:32:33.731Z,98936.00
2022-09-03T15:35:08.784Z,98929.00
2022-09-03T15:38:11.909Z,98931.00
2022-09-03T15:40:47.968Z,98934.00
2022-09-03T15:43:38.023Z,98926.00
2022-09-03T15:47:01.120Z,98923.00
2022-09-03T15:50:33.901Z,98919.00
2022-09-03T15:53:18.621Z,98919.00
2022-09-03T15:55:51.905Z,98931.00
2022-09-03T15:58:43.920Z,98933.00
2022-09-03T16:01:51.206Z,98939.00
2022-09-03T16:05:01.920Z,98934.00
2022-09-03T16:07:44.923Z,98928.00
2022-09-03T16:10:24.633Z,98931.00
2022-09-03T16:13:40.935Z,98940.00
2022-09-03T16:16:54.893Z,98938.00
2022-09-03T16:19:55.964Z,98936.00
2022-09-03T16:22:34.090Z,98941.00
2022-09-03T16:25:25.956Z,98949.00
2022-09-03T16:28:14.885Z,98943.00
2022-09-03T16:31:22.061Z,98939.00
2022-09-03T16:34:18.819Z,98934.00
2022-09-03T16:37:30.947Z,98932.00
2022-09-03T16:40:42.951Z,98955.00
2022-09-03T16:43:40.302Z,98953.00
2022-09-03T16:47:06.987Z,98950.00
2022-09-03T16:50:10.972Z,98960.00
2022-09-03T16:53:19.942Z,98965.00
2022-09-03T16:56:40.958Z,98966.00
2022-09-03T16:59:55.272Z,98966.00
2022-09-03T17:03:07.258Z,98968.00
2022-09-03T17:06:10.981Z,98957.00
2022-09-03T17:09:00.507Z,98958.00
2022-09-03T17:11:54.971Z,98969.00
2022-09-03T17:14:40.970Z,98969.00
2022-09-03T17:17:08.137Z,98982.00
2022-09-03T17:19:59.953Z,98981.00
2022-09-03T17:23:18.006Z,98976.00
2022-09-03T17:26:23.973Z,98968.00
2022-09-03T17:29:26.697Z,98972.00
2022-09-03T17:32:33.989Z,98974.00
2022-09-03T17:35:57.068Z,98976.00
2022-09-03T17:38:48.003Z,98979.00
2022-09-03T17:41:52.083Z,98973.00
2022-09-03T17:44:45.538Z,98991.00
2022-09-03T17:47:40.019Z,98991.00
2022-09-03T17:50:18.793Z,99002.00
2022-09-03T17:53:18.032Z,99013.00
2022-09-03T17:56:18.041Z,99021.00
2022-09-03T17:58:51.851Z,99023.00
2022-09-03T18:01:30.086Z,99035.00
2022-09-03T18:04:12.828Z,99034.00
2022-09-03T18:07:20.005Z,99035.00
2022-09-03T18:10:08.998Z,99044.00
2022-09-03T18:13:04.290Z,99047.00
2022-09-03T18:15:43.040Z,99056.00
2022-09-03T18:18:33.319Z,99057.00
2022-09-03T18:21:29.320Z,99062.00
2022-09-03T18:24:35.000Z,99053.00
2022-09-03T18:27:08.107Z,99057.00
2022-09-03T18:30:00.017Z,99069.00
2022-09-03T18:32:26.964Z,99066.00
2022-09-03T18:34:53.877Z,99066.00
2022-09-03T18:37:30.035Z,99074.00
2022-09-03T18:39:57.011Z,99068.00
2022-09-03T18:42:44.060Z,99076.00
2022-09-03T18:45:56.360Z,99075.00
2022-09-03T18:49:01.139Z,99075.00
2022-09-03T18:51:39.967Z,99071.00
2022-09-03T18:55:08.617Z,99073.00
2022-09-03T18:58:03.071Z,99068.00
2022-09-03T19:00:37.052Z,99069.00
2022-09-03T19:03:35.864Z,99059.00
2022-09-03T19:06:45.094Z,99066.00
2022-09-03T19:10:10.902Z,99075.00
2022-09-03T19:13:01.068Z,99074.00
2022-09-03T19:15:37.185Z,99085.00
2022-09-03T19:18:52.077Z,99092.00
2022-09-03T19:21:39.501Z,99088.00
2022-09-03T19:24:13.082Z,99101.00
2022-09-03T19:27:23.557Z,99110.00
2022-09-03T19:30:12.040Z,99103.00
2022-09-03T19:33:20.083Z,99113.00
2022-09-03T19:36:37.078Z,99108.00
2022-09-03T19:39:50.177Z,99105.00
2022-09-03T19:42:44.206Z,99099.00
2022-09-03T19:45:41.056Z,99113.00
2022-09-03T19:48:25.928Z,99109.00
2022-09-03T19:51:22.101Z,99112.00
2022-09-03T19:53:49.057Z,99113.00
2022-09-03T19:56:32.090Z,99113.00
2022-09-03T19:59:02.842Z,99104.00
2022-09-03T20:01:44.157Z,99117.00
2022-09-03T20:04:15.422Z,99103.00
2022-09-03T20:06:49.099Z,99106.00
2022-09-03T20:09:17.303Z,99112.00
2022-09-03T20:11:46.882Z,99078.00
2022-09-03T20:14:22.112Z,99114.00
2022-09-03T20:17:13.031Z,99115.00
2022-09-03T20:20:08.174Z,99117.00
2022-09-03T20:22:57.668Z,99113.00
2022-09-03T20:25:41.114Z,99109.00
2022-09-03T20:28:43.192Z,99119.00
2022-09-03T20:31:28.720Z,99104.00
2022-09-03T20:34:17.107Z,99107.00
2022-09-03T20:37:13.175Z,99113.00
2022-09-03T20:39:55.168Z,99114.00
2022-09-03T20:42:40.150Z,99120.00
2022-09-03T20:45:18.964Z,99131.00
2022-09-03T20:48:02.122Z,99128.00
2022-09-03T20:50:31.663Z,99122.00
2022-09-03T20:53:40.131Z,99113.00
2022-09-03T20:56:53.127Z,99124.00
2022-09-03T21:00:27.140Z,99133.00
2022-09-03T21:03:35.395Z,99132.00
2022-09-03T21:06:41.147Z,99137.00
2022-09-03T21:09:30.106Z,99134.00
2022-09-03T21:12:12.119Z,99152.00
2022-09-03T21:14:41.359Z,99146.00
2022-09-03T21:17:36.148Z,99145.00
2022-09-03T21:21:02.179Z,99150.00
2022-09-03T21:23:43.160Z,99139.00
2022-09-03T21:26:43.138Z,99147.00
2022-09-03T21:29:34.408Z,99146.00
2022-09-03T21:32:23.162Z,99153.00
2022-09-03T21:35:30.185Z,99153.00
2022-09-03T21:38:16.680Z,99145.00
2022-09-03T21:41:12.178Z,99152.00
2022-09-03T21:44:05.160Z,99153.00
2022-09-03T21:46:40.551Z,99143.00
2022-09-03T21:49:16.172Z,99150.00
2022-09-03T21:51:54.863Z,99154.00
2022-09-03T21:54:38.175Z,99145.00
2022-09-03T21:57:23.735Z,99146.00
2022-09-03T22:00:18.189Z,99139.00
2022-09-03T22:02:46.393Z,99140.00
2022-09-03T22:05:16.726Z,99137.00
2022-09-03T22:07:56.187Z,99139.00
2022-09-03T22:11:11.220Z,99143.00
2022-09-03T22:14:09.414Z,99142.00
2022-09-03T22:16:58.275Z,99155.00
2022-09-03T22:19:25.523Z,99157.00
2022-09-03T22:22:05.197Z,99163.00
2022-09-03T22:25:08.810Z,99156.00
2022-09-03T22:28:01.190Z,99172.00
2022-09-03T22:30:45.337Z,99175.00
2022-09-03T22:33:25.230Z,99178.00
2022-09-03T22:36:14.880Z,99179.00
2022-09-03T22:38:49.192Z,99191.00
2022-09-03T22:41:39.207Z,99192.00
2022-09-03T22:44:21.260Z,99192.00
2022-09-03T22:47:09.668Z,99185.00
2022-09-03T22:50:00.216Z,99181.00
2022-09-03T22:52:58.217Z,99183.00
2022-09-03T22:55:32.237Z,99178.00
2022-09-03T22:58:30.622Z,99183.00
2022-09-03T23:01:12.297Z,99179.00
2022-09-03T23:04:00.247Z,99169.00
2022-09-03T23:06:32.465Z,99174.00
2022-09-03T23:09:20.215Z,99160.00
2022-09-03T23:11:58.058Z,99170.00
2022-09-03T23:14:40.247Z,99175.00
2022-09-03T23:17:13.477Z,99165.00
2022-09-03T23:19:53.279Z,99154.00
2022-09-03T23:22:29.824Z,99161.00
2022-09-03T23:25:26.257Z,99165.00
2022-09-03T23:28:13.962Z,99180.00
2022-09-03T23:30:47.241Z,99160.00
2022-09-03T23:33:14.146Z,99171.00
2022-09-03T23:35:55.218Z,99170.00
2022-09-03T23:38:36.371Z,99162.00
2022-09-03T23:41:13.316Z,99162.00
2022-09-03T23:44:43.411Z,99161.00
2022-09-03T23:47:50.264Z,99156.00
2022-09-03T23:50:35.341Z,99161.00
2022-09-03T23:53:45.244Z,99159.00
2022-09-03T23:57:03.214Z,99153.00
